sensor_id;sensor_type;location;lat;lon;timestamp;pressure;altitude;pressure_sealevel;temperature;humidity
68137;BME280;54939;50.826;9.030;2024-02-26T00:00:23;97038.94;;;8.01;68.15
68137;BME280;54939;50.826;9.030;2024-02-26T00:00:53;97037.09;;;8.01;68.42
68137;BME280;54939;50.826;9.030;2024-02-26T00:01:23;97037.94;;;8.02;68.98
68137;BME280;54939;50.826;9.030;2024-02-26T00:01:54;97039.75;;;8.01;68.19
68137;BME280;54939;50.826;9.030;2024-02-26T00:02:24;97042.41;;;8.01;69.20
68137;BME280;54939;50.826;9.030;2024-02-26T00:02:55;97039.75;;;8.01;68.49
68137;BME280;54939;50.826;9.030;2024-02-26T00:03:25;97041.59;;;8.01;68.38
68137;BME280;54939;50.826;9.030;2024-02-26T00:03:55;97033.63;;;8.01;68.94
68137;BME280;54939;50.826;9.030;2024-02-26T00:04:29;97037.09;;;8.01;68.34
68137;BME280;54939;50.826;9.030;2024-02-26T00:04:59;97036.28;;;8.01;68.58
68137;BME280;54939;50.826;9.030;2024-02-26T00:05:29;97036.28;;;8.01;68.39
68137;BME280;54939;50.826;9.030;2024-02-26T00:06:02;97032.78;;;8.00;68.79
68137;BME280;54939;50.826;9.030;2024-02-26T00:06:32;97035.44;;;8.00;68.65
68137;BME280;54939;50.826;9.030;2024-02-26T00:07:02;97037.09;;;8.01;68.67
68137;BME280;54939;50.826;9.030;2024-02-26T00:07:32;97038.09;;;8.00;68.36
68137;BME280;54939;50.826;9.030;2024-02-26T00:08:03;97034.63;;;8.00;68.84
68137;BME280;54939;50.826;9.030;2024-02-26T00:08:33;97028.47;;;7.99;68.16
68137;BME280;54939;50.826;9.030;2024-02-26T00:09:03;97034.78;;;7.98;68.29
68137;BME280;54939;50.826;9.030;2024-02-26T00:09:35;97029.47;;;7.98;68.71
68137;BME280;54939;50.826;9.030;2024-02-26T00:10:07;97029.47;;;7.98;68.42
68137;BME280;54939;50.826;9.030;2024-02-26T00:10:37;97033.78;;;7.99;69.13
68137;BME280;54939;50.826;9.030;2024-02-26T00:11:07;97032.13;;;7.98;68.26
68137;BME280;54939;50.826;9.030;2024-02-26T00:11:37;97029.47;;;7.98;69.00
68137;BME280;54939;50.826;9.030;2024-02-26T00:12:08;97028.66;;;7.98;68.54
68137;BME280;54939;50.826;9.030;2024-02-26T00:12:38;97032.97;;;7.99;68.54
68137;BME280;54939;50.826;9.030;2024-02-26T00:13:09;97032.97;;;7.99;68.54
68137;BME280;54939;50.826;9.030;2024-02-26T00:13:39;97031.13;;;7.99;68.44
68137;BME280;54939;50.826;9.030;2024-02-26T00:14:09;97027.66;;;7.99;68.67
68137;BME280;54939;50.826;9.030;2024-02-26T00:14:39;97032.13;;;7.98;69.18
68137;BME280;54939;50.826;9.030;2024-02-26T00:15:11;97029.47;;;7.98;68.72
68137;BME280;54939;50.826;9.030;2024-02-26T00:15:41;97030.31;;;7.99;68.89
68137;BME280;54939;50.826;9.030;2024-02-26T00:16:11;97029.47;;;7.98;68.78
68137;BME280;54939;50.826;9.030;2024-02-26T00:16:42;97028.47;;;7.99;68.79
68137;BME280;54939;50.826;9.030;2024-02-26T00:17:13;97028.66;;;7.98;69.07
68137;BME280;54939;50.826;9.030;2024-02-26T00:17:43;97035.63;;;7.99;68.64
68137;BME280;54939;50.826;9.030;2024-02-26T00:18:13;97031.31;;;7.98;69.11
68137;BME280;54939;50.826;9.030;2024-02-26T00:18:43;97032.97;;;7.99;68.47
68137;BME280;54939;50.826;9.030;2024-02-26T00:19:13;97031.13;;;7.99;68.48
68137;BME280;54939;50.826;9.030;2024-02-26T00:19:44;97039.28;;;7.98;68.69
68137;BME280;54939;50.826;9.030;2024-02-26T00:20:14;97031.31;;;7.98;68.90
68137;BME280;54939;50.826;9.030;2024-02-26T00:20:44;97024.34;;;7.97;69.08
68137;BME280;54939;50.826;9.030;2024-02-26T00:21:14;97026.00;;;7.98;68.87
68137;BME280;54939;50.826;9.030;2024-02-26T00:21:45;97029.47;;;7.98;68.54
68137;BME280;54939;50.826;9.030;2024-02-26T00:22:15;97031.13;;;7.99;68.79
68137;BME280;54939;50.826;9.030;2024-02-26T00:22:45;97032.13;;;7.98;69.01
68137;BME280;54939;50.826;9.030;2024-02-26T00:23:15;97033.78;;;7.99;68.69
68137;BME280;54939;50.826;9.030;2024-02-26T00:23:46;97027.66;;;7.99;68.87
68137;BME280;54939;50.826;9.030;2024-02-26T00:24:16;97030.31;;;7.99;68.81
68137;BME280;54939;50.826;9.030;2024-02-26T00:24:46;97026.81;;;7.98;68.25
68137;BME280;54939;50.826;9.030;2024-02-26T00:25:16;97031.13;;;7.99;68.75
68137;BME280;54939;50.826;9.030;2024-02-26T00:25:46;97027.47;;;8.00;68.50
68137;BME280;54939;50.826;9.030;2024-02-26T00:26:16;97027.66;;;7.99;69.04
68137;BME280;54939;50.826;9.030;2024-02-26T00:26:47;97030.31;;;7.99;68.57
68137;BME280;54939;50.826;9.030;2024-02-26T00:27:22;97028.66;;;7.98;68.22
68137;BME280;54939;50.826;9.030;2024-02-26T00:27:52;97026.81;;;7.98;68.46
68137;BME280;54939;50.826;9.030;2024-02-26T00:28:23;97026.81;;;7.98;68.67
68137;BME280;54939;50.826;9.030;2024-02-26T00:28:54;97027.66;;;7.99;68.57
68137;BME280;54939;50.826;9.030;2024-02-26T00:29:24;97024.16;;;7.98;68.67
68137;BME280;54939;50.826;9.030;2024-02-26T00:29:55;97030.31;;;7.99;68.57
68137;BME280;54939;50.826;9.030;2024-02-26T00:30:25;97028.66;;;7.98;68.63
68137;BME280;54939;50.826;9.030;2024-02-26T00:30:56;97032.13;;;7.98;68.89
68137;BME280;54939;50.826;9.030;2024-02-26T00:31:26;97027.66;;;7.99;68.72
68137;BME280;54939;50.826;9.030;2024-02-26T00:31:56;97027.66;;;7.99;68.88
68137;BME280;54939;50.826;9.030;2024-02-26T00:32:26;97032.97;;;7.99;68.53
68137;BME280;54939;50.826;9.030;2024-02-26T00:32:56;97026.81;;;7.98;68.36
68137;BME280;54939;50.826;9.030;2024-02-26T00:33:26;97031.13;;;7.99;69.01
68137;BME280;54939;50.826;9.030;2024-02-26T00:33:57;97024.81;;;8.00;68.53
68137;BME280;54939;50.826;9.030;2024-02-26T00:34:27;97025.66;;;8.01;68.17
68137;BME280;54939;50.826;9.030;2024-02-26T00:34:57;97025.81;;;7.99;68.50
68137;BME280;54939;50.826;9.030;2024-02-26T00:35:27;97028.47;;;7.99;68.19
68137;BME280;54939;50.826;9.030;2024-02-26T00:35:57;97024.00;;;8.00;68.50
68137;BME280;54939;50.826;9.030;2024-02-26T00:36:27;97022.34;;;7.99;68.32
68137;BME280;54939;50.826;9.030;2024-02-26T00:36:58;97025.81;;;7.99;68.23
68137;BME280;54939;50.826;9.030;2024-02-26T00:37:28;97027.81;;;7.97;68.53
68137;BME280;54939;50.826;9.030;2024-02-26T00:37:58;97021.50;;;7.98;68.69
68137;BME280;54939;50.826;9.030;2024-02-26T00:38:28;97027.47;;;8.00;68.28
68137;BME280;54939;50.826;9.030;2024-02-26T00:38:58;97024.81;;;8.00;67.98
68137;BME280;54939;50.826;9.030;2024-02-26T00:39:29;97024.00;;;8.00;68.36
68137;BME280;54939;50.826;9.030;2024-02-26T00:39:59;97023.16;;;7.99;68.18
68137;BME280;54939;50.826;9.030;2024-02-26T00:40:29;97025.81;;;7.99;67.98
68137;BME280;54939;50.826;9.030;2024-02-26T00:40:59;97022.34;;;7.99;68.13
68137;BME280;54939;50.826;9.030;2024-02-26T00:41:29;97022.34;;;7.99;68.03
68137;BME280;54939;50.826;9.030;2024-02-26T00:41:59;97019.69;;;7.99;68.44
68137;BME280;54939;50.826;9.030;2024-02-26T00:42:30;97018.03;;;7.98;68.68
68137;BME280;54939;50.826;9.030;2024-02-26T00:43:00;97022.50;;;7.97;68.01
68137;BME280;54939;50.826;9.030;2024-02-26T00:43:30;97016.38;;;7.97;68.25
68137;BME280;54939;50.826;9.030;2024-02-26T00:44:00;97012.72;;;7.98;67.91
68137;BME280;54939;50.826;9.030;2024-02-26T00:44:30;97013.72;;;7.97;68.64
68137;BME280;54939;50.826;9.030;2024-02-26T00:45:02;97015.38;;;7.98;68.83
68137;BME280;54939;50.826;9.030;2024-02-26T00:45:32;97012.88;;;7.96;68.12
68137;BME280;54939;50.826;9.030;2024-02-26T00:46:02;97012.88;;;7.96;68.56
68137;BME280;54939;50.826;9.030;2024-02-26T00:46:33;97006.72;;;7.96;67.89
68137;BME280;54939;50.826;9.030;2024-02-26T00:47:03;97005.94;;;7.95;68.36
68137;BME280;54939;50.826;9.030;2024-02-26T00:47:33;97010.22;;;7.96;68.32
68137;BME280;54939;50.826;9.030;2024-02-26T00:48:03;97003.06;;;7.97;68.54
68137;BME280;54939;50.826;9.030;2024-02-26T00:48:37;96999.59;;;7.96;68.53
68137;BME280;54939;50.826;9.030;2024-02-26T00:49:07;97005.72;;;7.97;68.44
68137;BME280;54939;50.826;9.030;2024-02-26T00:49:37;97007.78;;;7.95;68.60
68137;BME280;54939;50.826;9.030;2024-02-26T00:50:08;97002.25;;;7.96;68.85
68137;BME280;54939;50.826;9.030;2024-02-26T00:50:38;97003.28;;;7.95;68.90
68137;BME280;54939;50.826;9.030;2024-02-26T00:51:08;97001.41;;;7.96;68.33
68137;BME280;54939;50.826;9.030;2024-02-26T00:51:38;97001.41;;;7.96;68.62
68137;BME280;54939;50.826;9.030;2024-02-26T00:52:08;97002.44;;;7.95;68.29
68137;BME280;54939;50.826;9.030;2024-02-26T00:52:38;96999.59;;;7.96;68.28
68137;BME280;54939;50.826;9.030;2024-02-26T00:53:09;97000.63;;;7.95;68.09
68137;BME280;54939;50.826;9.030;2024-02-26T00:53:39;96999.97;;;7.93;68.35
68137;BME280;54939;50.826;9.030;2024-02-26T00:54:09;97003.63;;;7.92;68.67
68137;BME280;54939;50.826;9.030;2024-02-26T00:54:39;97002.44;;;7.95;68.41
68137;BME280;54939;50.826;9.030;2024-02-26T00:55:09;97006.09;;;7.94;68.66
68137;BME280;54939;50.826;9.030;2024-02-26T00:55:40;96998.97;;;7.94;68.14
68137;BME280;54939;50.826;9.030;2024-02-26T00:56:10;97006.94;;;7.94;68.49
68137;BME280;54939;50.826;9.030;2024-02-26T00:56:40;96999.78;;;7.95;68.31
68137;BME280;54939;50.826;9.030;2024-02-26T00:57:10;97002.44;;;7.95;68.75
68137;BME280;54939;50.826;9.030;2024-02-26T00:57:41;97006.72;;;7.96;68.33
68137;BME280;54939;50.826;9.030;2024-02-26T00:58:12;96996.94;;;7.96;67.90
68137;BME280;54939;50.826;9.030;2024-02-26T00:58:42;97000.41;;;7.97;68.41
68137;BME280;54939;50.826;9.030;2024-02-26T00:59:12;96997.75;;;7.97;68.03
68137;BME280;54939;50.826;9.030;2024-02-26T00:59:42;96994.28;;;7.96;68.42
68137;BME280;54939;50.826;9.030;2024-02-26T01:00:12;97004.06;;;7.96;68.35
68137;BME280;54939;50.826;9.030;2024-02-26T01:00:43;97000.63;;;7.95;68.43
68137;BME280;54939;50.826;9.030;2024-02-26T01:01:13;97000.63;;;7.95;68.58
68137;BME280;54939;50.826;9.030;2024-02-26T01:01:43;97006.72;;;7.96;68.54
68137;BME280;54939;50.826;9.030;2024-02-26T01:02:13;96997.97;;;7.95;68.68
68137;BME280;54939;50.826;9.030;2024-02-26T01:02:44;97001.41;;;7.96;67.82
68137;BME280;54939;50.826;9.030;2024-02-26T01:03:19;97004.06;;;7.96;68.36
68137;BME280;54939;50.826;9.030;2024-02-26T01:03:49;96996.09;;;7.96;68.62
68137;BME280;54939;50.826;9.030;2024-02-26T01:04:19;97001.41;;;7.96;68.01
68137;BME280;54939;50.826;9.030;2024-02-26T01:04:50;96998.97;;;7.94;68.83
68137;BME280;54939;50.826;9.030;2024-02-26T01:05:20;96993.44;;;7.96;68.35
68137;BME280;54939;50.826;9.030;2024-02-26T01:05:51;96995.09;;;7.97;68.77
68137;BME280;54939;50.826;9.030;2024-02-26T01:06:21;96999.59;;;7.96;68.22
68137;BME280;54939;50.826;9.030;2024-02-26T01:06:52;97002.25;;;7.96;68.60
68137;BME280;54939;50.826;9.030;2024-02-26T01:07:22;96993.44;;;7.96;68.44
68137;BME280;54939;50.826;9.030;2024-02-26T01:07:52;96997.13;;;7.95;68.46
68137;BME280;54939;50.826;9.030;2024-02-26T01:08:22;96994.47;;;7.95;68.39
68137;BME280;54939;50.826;9.030;2024-02-26T01:08:53;96994.47;;;7.95;68.86
68137;BME280;54939;50.826;9.030;2024-02-26T01:09:23;96993.66;;;7.94;68.48
68137;BME280;54939;50.826;9.030;2024-02-26T01:09:53;96996.09;;;7.96;68.49
68137;BME280;54939;50.826;9.030;2024-02-26T01:10:23;96995.47;;;7.94;68.12
68137;BME280;54939;50.826;9.030;2024-02-26T01:10:53;96996.09;;;7.96;68.82
68137;BME280;54939;50.826;9.030;2024-02-26T01:11:24;96994.47;;;7.95;68.48
68137;BME280;54939;50.826;9.030;2024-02-26T01:11:54;96993.66;;;7.94;68.61
68137;BME280;54939;50.826;9.030;2024-02-26T01:12:24;96993.66;;;7.94;68.18
68137;BME280;54939;50.826;9.030;2024-02-26T01:12:54;96995.66;;;7.92;68.28
68137;BME280;54939;50.826;9.030;2024-02-26T01:13:24;97002.63;;;7.93;67.86
68137;BME280;54939;50.826;9.030;2024-02-26T01:13:55;96998.31;;;7.92;68.09
68137;BME280;54939;50.826;9.030;2024-02-26T01:14:26;96999.97;;;7.93;68.38
68137;BME280;54939;50.826;9.030;2024-02-26T01:14:56;96993.81;;;7.93;67.97
68137;BME280;54939;50.826;9.030;2024-02-26T01:15:27;96991.16;;;7.93;68.63
68137;BME280;54939;50.826;9.030;2024-02-26T01:15:57;96993.00;;;7.92;68.71
68137;BME280;54939;50.826;9.030;2024-02-26T01:16:27;96998.31;;;7.92;68.10
68137;BME280;54939;50.826;9.030;2024-02-26T01:16:59;96994.66;;;7.93;68.58
68137;BME280;54939;50.826;9.030;2024-02-26T01:17:29;96994.66;;;7.93;68.63
68137;BME280;54939;50.826;9.030;2024-02-26T01:17:59;96998.31;;;7.92;68.49
68137;BME280;54939;50.826;9.030;2024-02-26T01:18:29;96996.47;;;7.93;68.66
68137;BME280;54939;50.826;9.030;2024-02-26T01:18:59;96998.31;;;7.92;68.43
68137;BME280;54939;50.826;9.030;2024-02-26T01:19:30;96999.97;;;7.93;68.17
68137;BME280;54939;50.826;9.030;2024-02-26T01:20:00;97000.97;;;7.92;67.91
68137;BME280;54939;50.826;9.030;2024-02-26T01:20:30;96994.84;;;7.91;68.66
68137;BME280;54939;50.826;9.030;2024-02-26T01:21:00;96992.00;;;7.93;68.15
68137;BME280;54939;50.826;9.030;2024-02-26T01:21:30;96995.47;;;7.94;68.38
68137;BME280;54939;50.826;9.030;2024-02-26T01:22:01;96998.13;;;7.94;68.41
68137;BME280;54939;50.826;9.030;2024-02-26T01:22:31;96993.00;;;7.92;68.41
68137;BME280;54939;50.826;9.030;2024-02-26T01:23:01;97002.63;;;7.93;68.46
68137;BME280;54939;50.826;9.030;2024-02-26T01:23:32;96997.31;;;7.93;68.46
68137;BME280;54939;50.826;9.030;2024-02-26T01:24:02;96994.66;;;7.93;68.82
68137;BME280;54939;50.826;9.030;2024-02-26T01:24:32;96994.47;;;7.95;68.72
68137;BME280;54939;50.826;9.030;2024-02-26T01:25:03;96993.66;;;7.94;68.43
68137;BME280;54939;50.826;9.030;2024-02-26T01:25:33;96993.81;;;7.93;68.10
68137;BME280;54939;50.826;9.030;2024-02-26T01:26:03;96993.66;;;7.94;68.05
68137;BME280;54939;50.826;9.030;2024-02-26T01:26:34;96994.66;;;7.93;68.54
68137;BME280;54939;50.826;9.030;2024-02-26T01:27:04;96999.13;;;7.93;68.66
68137;BME280;54939;50.826;9.030;2024-02-26T01:27:35;96999.13;;;7.93;68.49
68137;BME280;54939;50.826;9.030;2024-02-26T01:28:05;97002.63;;;7.93;68.14
68137;BME280;54939;50.826;9.030;2024-02-26T01:28:36;96996.47;;;7.93;68.62
68137;BME280;54939;50.826;9.030;2024-02-26T01:29:06;96992.81;;;7.94;68.40
68137;BME280;54939;50.826;9.030;2024-02-26T01:29:36;96990.16;;;7.94;68.46
68137;BME280;54939;50.826;9.030;2024-02-26T01:30:07;96998.13;;;7.94;68.58
68137;BME280;54939;50.826;9.030;2024-02-26T01:30:37;97000.78;;;7.94;67.98
68137;BME280;54939;50.826;9.030;2024-02-26T01:31:08;97000.78;;;7.94;68.47
68137;BME280;54939;50.826;9.030;2024-02-26T01:31:39;96998.13;;;7.94;68.63
68137;BME280;54939;50.826;9.030;2024-02-26T01:32:09;96998.31;;;7.92;68.03
68137;BME280;54939;50.826;9.030;2024-02-26T01:32:39;96999.97;;;7.93;68.59
68137;BME280;54939;50.826;9.030;2024-02-26T01:33:10;96998.31;;;7.92;68.27
68137;BME280;54939;50.826;9.030;2024-02-26T01:33:40;96999.97;;;7.93;68.66
68137;BME280;54939;50.826;9.030;2024-02-26T01:34:10;96999.13;;;7.93;67.91
68137;BME280;54939;50.826;9.030;2024-02-26T01:34:40;96995.84;;;7.90;68.49
68137;BME280;54939;50.826;9.030;2024-02-26T01:35:11;97004.28;;;7.94;68.79
68137;BME280;54939;50.826;9.030;2024-02-26T01:35:41;97002.63;;;7.93;68.37
68137;BME280;54939;50.826;9.030;2024-02-26T01:36:12;97001.78;;;7.93;68.53
68137;BME280;54939;50.826;9.030;2024-02-26T01:36:42;96999.97;;;7.93;67.93
68137;BME280;54939;50.826;9.030;2024-02-26T01:37:12;96999.97;;;7.93;68.60
68137;BME280;54939;50.826;9.030;2024-02-26T01:37:43;97002.63;;;7.93;68.21
68137;BME280;54939;50.826;9.030;2024-02-26T01:38:13;97005.28;;;7.93;68.29
68137;BME280;54939;50.826;9.030;2024-02-26T01:38:43;97003.78;;;7.90;68.24
68137;BME280;54939;50.826;9.030;2024-02-26T01:39:13;97003.78;;;7.90;68.31
68137;BME280;54939;50.826;9.030;2024-02-26T01:39:43;97005.63;;;7.90;68.59
68137;BME280;54939;50.826;9.030;2024-02-26T01:40:14;97002.97;;;7.90;68.41
68137;BME280;54939;50.826;9.030;2024-02-26T01:40:48;97000.31;;;7.90;68.37
68137;BME280;54939;50.826;9.030;2024-02-26T01:41:18;97008.44;;;7.88;68.86
68137;BME280;54939;50.826;9.030;2024-02-26T01:41:48;97010.31;;;7.88;68.83
68137;BME280;54939;50.826;9.030;2024-02-26T01:42:18;97011.94;;;7.89;68.75
68137;BME280;54939;50.826;9.030;2024-02-26T01:42:48;97010.94;;;7.90;68.33
68137;BME280;54939;50.826;9.030;2024-02-26T01:43:19;97007.28;;;7.91;68.25
68137;BME280;54939;50.826;9.030;2024-02-26T01:43:49;97010.09;;;7.89;68.52
68137;BME280;54939;50.826;9.030;2024-02-26T01:44:19;97009.94;;;7.91;68.86
68137;BME280;54939;50.826;9.030;2024-02-26T01:44:49;97009.94;;;7.91;68.42
68137;BME280;54939;50.826;9.030;2024-02-26T01:45:20;97016.09;;;7.91;68.62
68137;BME280;54939;50.826;9.030;2024-02-26T01:45:54;97010.78;;;7.91;69.07
68137;BME280;54939;50.826;9.030;2024-02-26T01:46:25;97009.94;;;7.91;68.15
68137;BME280;54939;50.826;9.030;2024-02-26T01:46:55;97005.44;;;7.91;68.56
68137;BME280;54939;50.826;9.030;2024-02-26T01:47:25;97010.94;;;7.90;68.38
68137;BME280;54939;50.826;9.030;2024-02-26T01:47:56;97016.25;;;7.90;68.55
68137;BME280;54939;50.826;9.030;2024-02-26T01:48:26;97009.94;;;7.91;68.87
68137;BME280;54939;50.826;9.030;2024-02-26T01:48:57;97013.97;;;7.87;68.85
68137;BME280;54939;50.826;9.030;2024-02-26T01:49:27;97016.25;;;7.90;68.90
68137;BME280;54939;50.826;9.030;2024-02-26T01:49:58;97018.09;;;7.89;68.88
68137;BME280;54939;50.826;9.030;2024-02-26T01:50:28;97015.25;;;7.91;68.29
68137;BME280;54939;50.826;9.030;2024-02-26T01:50:58;97017.09;;;7.90;68.99
68137;BME280;54939;50.826;9.030;2024-02-26T01:51:29;97021.56;;;7.90;68.52
68137;BME280;54939;50.826;9.030;2024-02-26T01:52:00;97020.56;;;7.91;68.76
68137;BME280;54939;50.826;9.030;2024-02-26T01:52:32;97020.56;;;7.91;68.11
68137;BME280;54939;50.826;9.030;2024-02-26T01:53:02;97014.44;;;7.90;68.48
68137;BME280;54939;50.826;9.030;2024-02-26T01:53:33;97020.56;;;7.91;69.12
68137;BME280;54939;50.826;9.030;2024-02-26T01:54:03;97014.44;;;7.90;68.85
68137;BME280;54939;50.826;9.030;2024-02-26T01:54:34;97017.25;;;7.89;68.24
68137;BME280;54939;50.826;9.030;2024-02-26T01:55:05;97012.97;;;7.88;68.49
68137;BME280;54939;50.826;9.030;2024-02-26T01:55:35;97014.13;;;7.85;69.18
68137;BME280;54939;50.826;9.030;2024-02-26T01:56:06;97019.28;;;7.87;68.64
68137;BME280;54939;50.826;9.030;2024-02-26T01:56:37;97017.25;;;7.89;68.40
68137;BME280;54939;50.826;9.030;2024-02-26T01:57:08;97015.44;;;7.89;68.88
68137;BME280;54939;50.826;9.030;2024-02-26T01:57:39;97014.81;;;7.87;69.25
68137;BME280;54939;50.826;9.030;2024-02-26T01:58:09;97011.31;;;7.87;68.51
68137;BME280;54939;50.826;9.030;2024-02-26T01:58:39;97008.66;;;7.87;68.64
68137;BME280;54939;50.826;9.030;2024-02-26T01:59:10;97003.34;;;7.87;68.72
68137;BME280;54939;50.826;9.030;2024-02-26T01:59:40;97014.81;;;7.87;69.04
68137;BME280;54939;50.826;9.030;2024-02-26T02:00:11;97006.00;;;7.87;68.27
68137;BME280;54939;50.826;9.030;2024-02-26T02:00:42;97011.09;;;7.88;68.51
68137;BME280;54939;50.826;9.030;2024-02-26T02:01:13;97005.00;;;7.88;68.49
68137;BME280;54939;50.826;9.030;2024-02-26T02:01:46;97006.00;;;7.87;68.76
68137;BME280;54939;50.826;9.030;2024-02-26T02:02:18;97010.09;;;7.89;68.92
68137;BME280;54939;50.826;9.030;2024-02-26T02:02:49;97007.28;;;7.91;68.71
68137;BME280;54939;50.826;9.030;2024-02-26T02:03:20;97006.44;;;7.90;68.36
68137;BME280;54939;50.826;9.030;2024-02-26T02:03:50;97007.44;;;7.89;68.24
68137;BME280;54939;50.826;9.030;2024-02-26T02:04:21;97007.44;;;7.89;68.29
68137;BME280;54939;50.826;9.030;2024-02-26T02:04:52;97010.31;;;7.88;69.01
68137;BME280;54939;50.826;9.030;2024-02-26T02:05:23;97007.66;;;7.88;68.41
68137;BME280;54939;50.826;9.030;2024-02-26T02:05:54;97003.34;;;7.87;69.26
68137;BME280;54939;50.826;9.030;2024-02-26T02:06:24;96996.22;;;7.87;68.67
68137;BME280;54939;50.826;9.030;2024-02-26T02:06:54;97001.50;;;7.87;68.69
68137;BME280;54939;50.826;9.030;2024-02-26T02:07:25;97002.34;;;7.88;68.54
68137;BME280;54939;50.826;9.030;2024-02-26T02:07:57;97000.47;;;7.88;68.50
68137;BME280;54939;50.826;9.030;2024-02-26T02:08:28;97006.63;;;7.89;69.05
68137;BME280;54939;50.826;9.030;2024-02-26T02:08:58;96998.84;;;7.87;68.50
68137;BME280;54939;50.826;9.030;2024-02-26T02:09:30;97010.31;;;7.88;68.57
68137;BME280;54939;50.826;9.030;2024-02-26T02:10:00;97010.31;;;7.88;68.34
68137;BME280;54939;50.826;9.030;2024-02-26T02:10:30;97005.78;;;7.88;68.54
68137;BME280;54939;50.826;9.030;2024-02-26T02:11:01;97010.31;;;7.88;68.19
68137;BME280;54939;50.826;9.030;2024-02-26T02:11:32;97011.09;;;7.88;68.57
68137;BME280;54939;50.826;9.030;2024-02-26T02:12:03;97014.81;;;7.87;68.26
68137;BME280;54939;50.826;9.030;2024-02-26T02:12:34;97013.13;;;7.86;68.42
68137;BME280;54939;50.826;9.030;2024-02-26T02:13:04;97014.59;;;7.89;68.13
68137;BME280;54939;50.826;9.030;2024-02-26T02:13:34;97020.75;;;7.89;68.89
68137;BME280;54939;50.826;9.030;2024-02-26T02:14:04;97016.63;;;7.87;69.14
68137;BME280;54939;50.826;9.030;2024-02-26T02:14:34;97017.63;;;7.86;68.37
68137;BME280;54939;50.826;9.030;2024-02-26T02:15:05;97022.13;;;7.85;68.42
68137;BME280;54939;50.826;9.030;2024-02-26T02:15:35;97020.28;;;7.86;69.09
68137;BME280;54939;50.826;9.030;2024-02-26T02:16:05;97021.13;;;7.86;68.98
68137;BME280;54939;50.826;9.030;2024-02-26T02:16:36;97022.13;;;7.85;68.90
68137;BME280;54939;50.826;9.030;2024-02-26T02:17:06;97024.78;;;7.85;69.08
68137;BME280;54939;50.826;9.030;2024-02-26T02:17:36;97023.78;;;7.86;68.55
68137;BME280;54939;50.826;9.030;2024-02-26T02:18:07;97025.59;;;7.86;68.89
68137;BME280;54939;50.826;9.030;2024-02-26T02:18:37;97020.28;;;7.86;68.76
68137;BME280;54939;50.826;9.030;2024-02-26T02:19:07;97022.13;;;7.85;69.00
68137;BME280;54939;50.826;9.030;2024-02-26T02:19:37;97025.75;;;7.84;68.87
68137;BME280;54939;50.826;9.030;2024-02-26T02:20:08;97030.91;;;7.86;69.08
68137;BME280;54939;50.826;9.030;2024-02-26T02:20:38;97034.56;;;7.85;68.92
68137;BME280;54939;50.826;9.030;2024-02-26T02:21:08;97028.41;;;7.84;68.60
68137;BME280;54939;50.826;9.030;2024-02-26T02:21:38;97026.59;;;7.85;68.66
68137;BME280;54939;50.826;9.030;2024-02-26T02:22:08;97035.56;;;7.84;68.74
68137;BME280;54939;50.826;9.030;2024-02-26T02:22:39;97033.91;;;7.83;68.71
68137;BME280;54939;50.826;9.030;2024-02-26T02:23:09;97037.38;;;7.83;68.81
68137;BME280;54939;50.826;9.030;2024-02-26T02:23:39;97032.91;;;7.84;68.55
68137;BME280;54939;50.826;9.030;2024-02-26T02:24:10;97036.38;;;7.84;68.55
68137;BME280;54939;50.826;9.030;2024-02-26T02:24:40;97032.06;;;7.83;68.81
68137;BME280;54939;50.826;9.030;2024-02-26T02:25:10;97031.06;;;7.84;68.88
68137;BME280;54939;50.826;9.030;2024-02-26T02:25:40;97023.94;;;7.85;68.68
68137;BME280;54939;50.826;9.030;2024-02-26T02:26:10;97026.44;;;7.86;68.87
68137;BME280;54939;50.826;9.030;2024-02-26T02:26:41;97026.44;;;7.86;68.50
68137;BME280;54939;50.826;9.030;2024-02-26T02:27:11;97022.13;;;7.85;69.05
68137;BME280;54939;50.826;9.030;2024-02-26T02:27:42;97017.63;;;7.86;68.93
68137;BME280;54939;50.826;9.030;2024-02-26T02:28:12;97022.13;;;7.85;68.95
68137;BME280;54939;50.826;9.030;2024-02-26T02:28:43;97015.97;;;7.85;68.63
68137;BME280;54939;50.826;9.030;2024-02-26T02:29:13;97013.31;;;7.85;69.09
68137;BME280;54939;50.826;9.030;2024-02-26T02:29:44;97018.63;;;7.85;69.08
68137;BME280;54939;50.826;9.030;2024-02-26T02:30:14;97019.47;;;7.85;68.94
68137;BME280;54939;50.826;9.030;2024-02-26T02:30:46;97022.94;;;7.86;68.82
68137;BME280;54939;50.826;9.030;2024-02-26T02:31:16;97031.91;;;7.85;68.56
68137;BME280;54939;50.826;9.030;2024-02-26T02:31:47;97034.72;;;7.83;69.38
68137;BME280;54939;50.826;9.030;2024-02-26T02:32:17;97039.88;;;7.85;68.89
68137;BME280;54939;50.826;9.030;2024-02-26T02:32:48;97042.53;;;7.85;68.57
68137;BME280;54939;50.826;9.030;2024-02-26T02:33:18;97051.34;;;7.85;69.22
68137;BME280;54939;50.826;9.030;2024-02-26T02:33:49;97033.56;;;7.86;68.89
68137;BME280;54939;50.826;9.030;2024-02-26T02:34:19;97052.16;;;7.86;68.48
68137;BME280;54939;50.826;9.030;2024-02-26T02:34:50;97038.06;;;7.85;68.98
68137;BME280;54939;50.826;9.030;2024-02-26T02:35:20;97043.38;;;7.85;68.88
68137;BME280;54939;50.826;9.030;2024-02-26T02:35:50;97041.72;;;7.84;68.88
68137;BME280;54939;50.826;9.030;2024-02-26T02:36:22;97039.88;;;7.85;69.10
68137;BME280;54939;50.826;9.030;2024-02-26T02:36:52;97043.38;;;7.85;68.89
68137;BME280;54939;50.826;9.030;2024-02-26T02:37:23;97047.84;;;7.85;68.71
68137;BME280;54939;50.826;9.030;2024-02-26T02:37:54;97044.69;;;7.81;68.76
68137;BME280;54939;50.826;9.030;2024-02-26T02:38:24;97044.69;;;7.81;68.99
68137;BME280;54939;50.826;9.030;2024-02-26T02:38:55;97048.19;;;7.82;69.25
68137;BME280;54939;50.826;9.030;2024-02-26T02:39:26;97043.69;;;7.82;68.92
68137;BME280;54939;50.826;9.030;2024-02-26T02:39:56;97043.69;;;7.82;68.50
68137;BME280;54939;50.826;9.030;2024-02-26T02:40:27;97049.84;;;7.83;68.64
68137;BME280;54939;50.826;9.030;2024-02-26T02:40:57;97041.88;;;7.83;69.26
68137;BME280;54939;50.826;9.030;2024-02-26T02:41:27;97042.53;;;7.85;69.06
68137;BME280;54939;50.826;9.030;2024-02-26T02:41:59;97042.38;;;7.86;68.85
68137;BME280;54939;50.826;9.030;2024-02-26T02:42:30;97045.84;;;7.87;68.64
68137;BME280;54939;50.826;9.030;2024-02-26T02:43:00;97040.53;;;7.87;68.59
68137;BME280;54939;50.826;9.030;2024-02-26T02:43:31;97034.56;;;7.85;69.05